Home > Products > Valid Products > TAF

000
FTUS42 KTBW 211700
TAFSRQ
TAF
KSRQ 211729Z 2118/2218 16008KT P6SM SCT030 BKN070
     FM212100 18008KT P6SM BKN060 BKN200
     FM220200 15007KT P6SM VCSH BKN050 BKN100
     FM220800 15007KT P6SM VCSH BKN030 BKN080
     FM221400 17009KT P6SM SCT025 BKN040=



000
FTUS42 KTBW 211700
TAFFMY
TAF
KFMY 211729Z 2118/2218 16007KT P6SM SCT030 BKN080 BKN250
     FM212000 18007KT P6SM BKN070 BKN200
     FM220000 15004KT P6SM BKN060 BKN120
     FM221300 18007KT P6SM FEW025 BKN100=



000
FTUS42 KTBW 211700
TAFTPA
TAF
KTPA 211729Z 2118/2218 15006KT P6SM SCT030 OVC100
     FM212100 18006KT P6SM VCSH BKN060 OVC150
     FM220200 15005KT 6SM SHRA BKN040 OVC100
     FM220800 15005KT 5SM SHRA BKN030 OVC070
     FM221400 17008KT P6SM VCSH SCT025 BKN040=



000
FTUS42 KTBW 211700
TAFPIE
TAF
KPIE 211729Z 2118/2218 15007KT P6SM SCT030 OVC100
     FM212100 18007KT P6SM VCSH BKN060 OVC150
     FM220200 16005KT 6SM SHRA BKN040 OVC100
     FM220900 16008KT 5SM SHRA BKN030 OVC070
     FM221400 17010KT P6SM VCSH SCT025 BKN040=



000
FTUS42 KTBW 211700
TAFRSW
TAF
KRSW 211729Z 2118/2218 16008KT P6SM SCT030 BKN080 BKN250
     FM212000 18007KT P6SM BKN070 BKN200
     FM220000 15005KT P6SM BKN060 BKN120
     FM221300 19008KT P6SM FEW025 BKN100=



000
FTUS42 KTBW 211400 AAA
TAFTPA
TAF AMD
KTPA 211459Z 2115/2212 15006KT P6SM SCT030 BKN100 BKN200
     FM211900 18006KT P6SM VCSH BKN060 OVC150
     FM220200 15005KT 6SM SHRA BKN040 OVC100
     FM220800 15005KT 5SM SHRA BKN030 OVC070=



000
FTUS42 KTBW 211100
TAFRSW
TAF
KRSW 211121Z 2112/2212 VRB04KT P6SM BKN100
     FM211400 16008KT P6SM SCT030 BKN080 BKN250
     FM211900 18007KT P6SM BKN070 BKN200
     FM220000 15005KT P6SM BKN060 BKN120=



000
FTUS42 KTBW 211100
TAFPIE
TAF
KPIE 211121Z 2112/2212 VRB05KT P6SM BKN070 BKN150
     FM211400 15007KT P6SM SCT030 BKN070 BKN200
     FM211900 18007KT P6SM VCSH BKN060 OVC150
     FM220200 16005KT 6SM SHRA BKN040 OVC100
     FM220900 16006KT 5SM SHRA BKN030 OVC070=



000
FTUS42 KTBW 211100
TAFSRQ
TAF
KSRQ 211121Z 2112/2212 VRB04KT P6SM BKN080
     FM211400 15008KT P6SM SCT030 BKN070 BKN200
     FM211900 18008KT P6SM BKN060 BKN200
     FM220200 15007KT P6SM VCSH BKN050 BKN100
     FM220800 15007KT P6SM VCSH BKN030 BKN080=



000
FTUS42 KTBW 211100
TAFFMY
TAF
KFMY 211121Z 2112/2212 VRB05KT P6SM BKN100
     FM211400 16007KT P6SM SCT030 BKN080 BKN250
     FM211900 18007KT P6SM BKN070 BKN200
     FM220000 15004KT P6SM BKN060 BKN120=



000
FTUS42 KTBW 211100
TAFTPA
TAF
KTPA 211121Z 2112/2212 VRB04KT P6SM BKN070 BKN150
     FM211400 15006KT P6SM SCT030 BKN070 BKN200
     FM211900 18006KT P6SM VCSH BKN060 OVC150
     FM220200 15005KT 6SM SHRA BKN040 OVC100
     FM220800 15005KT 5SM SHRA BKN030 OVC070=



000
FTUS42 KTBW 210800 AAA
TAFTPA
TAF AMD
KTPA 210858Z 2109/2206 VRB04KT P6SM SCT070 BKN150
     FM211400 14005KT P6SM SCT030 BKN070 BKN200
     FM212000 17005KT P6SM VCSH BKN060 OVC150
     FM220200 15004KT 6SM -SHRA BKN040 OVC100=



000
FTUS42 KTBW 210500
TAFRSW
TAF
KRSW 210539Z 2106/2206 VRB04KT P6SM BKN100
     FM211400 16007KT P6SM SCT030 BKN080 BKN250
     FM211900 18007KT P6SM BKN070 BKN200
     FM220000 15005KT P6SM BKN060 BKN120=



000
FTUS42 KTBW 210500
TAFPIE
TAF
KPIE 210539Z 2106/2206 VRB04KT P6SM BKN070 BKN150
     FM211400 14007KT P6SM SCT030 BKN070 BKN200
     FM212000 17006KT P6SM VCSH BKN060 OVC150
     FM220200 16005KT 6SM -SHRA BKN040 OVC100=



000
FTUS42 KTBW 210500
TAFFMY
TAF
KFMY 210539Z 2106/2206 VRB04KT P6SM BKN100
     FM211400 16007KT P6SM SCT030 BKN080 BKN250
     FM211900 18007KT P6SM BKN070 BKN200
     FM220000 15005KT P6SM BKN060 BKN120=



000
FTUS42 KTBW 210500
TAFSRQ
TAF
KSRQ 210539Z 2106/2206 VRB04KT P6SM BKN100
     FM211400 15008KT P6SM SCT030 BKN070 BKN200
     FM211900 18008KT P6SM BKN060 BKN200
     FM220200 15007KT P6SM VCSH BKN050 BKN100=



000
FTUS42 KTBW 210500
TAFTPA
TAF
KTPA 210539Z 2106/2206 VRB04KT P6SM BKN070 BKN150
     FM211400 14005KT P6SM SCT030 BKN070 BKN200
     FM212000 17005KT P6SM VCSH BKN060 OVC150
     FM220200 15004KT 6SM -SHRA BKN040 OVC100=



000
FTUS42 KTBW 210200 AAA
TAFSRQ
TAF AMD
KSRQ 210235Z 2103/2124 17007KT P6SM BKN100
     FM210900 13006KT P6SM SCT020 BKN080 BKN250
     FM212100 18007KT P6SM VCSH OVC050=



000
FTUS42 KTBW 210200 AAA
TAFPIE
TAF AMD
KPIE 210232Z 2103/2124 VRB04KT P6SM BKN090 BKN250
     FM210900 12005KT P6SM SCT020 BKN080 BKN250
     FM212100 19006KT P6SM VCSH OVC050=



000
FTUS42 KTBW 210200 AAA
TAFTPA
TAF AMD
KTPA 210231Z 2103/2124 VRB03KT P6SM BKN090 BKN250
     FM210900 14005KT P6SM SCT020 BKN080 BKN250
     FM212100 21006KT P6SM VCSH OVC050=



000
FTUS42 KTBW 202300
TAFPIE
TAF
KPIE 202328Z 2100/2124 24004KT P6SM BKN090 BKN250
     FM211200 12006KT P6SM SCT020 BKN080 BKN250
     FM212100 19006KT P6SM VCSH OVC050=



000
FTUS42 KTBW 202300
TAFRSW
TAF
KRSW 202328Z 2100/2124 VRB03KT P6SM SCT100
     FM211200 14007KT P6SM SCT020 BKN080 BKN250
     FM212100 19007KT P6SM OVC050=



000
FTUS42 KTBW 202300
TAFSRQ
TAF
KSRQ 202328Z 2100/2124 17007KT P6SM BKN100
     FM211200 13008KT P6SM SCT020 BKN080 BKN250
     FM212100 18007KT P6SM VCSH OVC050=



000
FTUS42 KTBW 202300
TAFTPA
TAF
KTPA 202328Z 2100/2124 VRB03KT P6SM BKN090 BKN250
     FM211200 10006KT P6SM SCT020 BKN080 BKN250
     FM212100 21006KT P6SM VCSH OVC050=



000
FTUS42 KTBW 202300
TAFFMY
TAF
KFMY 202328Z 2100/2124 VRB03KT P6SM SCT100
     FM211200 14007KT P6SM SCT020 BKN080 BKN250
     FM212100 19007KT P6SM OVC050=



000
FTUS42 KTBW 202000 AAA
TAFTPA
TAF AMD
KTPA 202057Z 2021/2118 23005KT P6SM BKN100
     FM202300 VRB03KT P6SM BKN070 BKN250
     FM211200 10006KT P6SM FEW020 BKN080 BKN250=



000
FTUS42 KTBW 201700
TAFFMY
TAF
KFMY 201725Z 2018/2118 15008KT P6SM FEW035 FEW250
     FM201900 20006KT P6SM SCT035 SCT250
     FM210000 VRB03KT P6SM SCT100 BKN250
     FM211200 14007KT P6SM SCT020 BKN080 BKN250=



000
FTUS42 KTBW 201700
TAFRSW
TAF
KRSW 201725Z 2018/2118 15009KT P6SM FEW150 SCT250
     FM201900 20006KT P6SM SCT035 SCT250
     FM210000 VRB03KT P6SM SCT100 BKN250
     FM211200 14007KT P6SM SCT020 BKN080 BKN250=



000
FTUS42 KTBW 201700
TAFPIE
TAF
KPIE 201725Z 2018/2118 09007KT P6SM SCT150 SCT250
     FM202000 24005KT P6SM SCT110 BKN250
     FM210000 VRB03KT P6SM BKN070 BKN250
     FM211200 12006KT P6SM FEW020 BKN080 BKN250=



000
FTUS42 KTBW 201700
TAFTPA
TAF
KTPA 201725Z 2018/2118 23005KT P6SM SCT100 SCT250
     FM202300 VRB03KT P6SM BKN070 BKN250
     FM211200 10006KT P6SM FEW020 BKN080 BKN250=



000
FTUS42 KTBW 201700
TAFSRQ
TAF
KSRQ 201725Z 2018/2118 18009KT P6SM FEW150
     FM202100 23006KT P6SM BKN100 BKN250
     FM210000 VRB03KT P6SM BKN100 BKN250
     FM211200 13008KT P6SM FEW020 BKN070 BKN250=



000
FTUS42 KTBW 201400 AAA
TAFTPA
TAF AMD
KTPA 201458Z 2015/2112 13005KT P6SM FEW100 BKN250
     FM201800 23005KT P6SM BKN110 BKN250
     FM202300 VRB03KT P6SM BKN070 BKN250=



000
FTUS42 KTBW 201100
TAFRSW
TAF
KRSW 201131Z 2012/2112 VRB03KT P6SM SCT250
     FM201400 14007KT P6SM FEW150 SCT250
     FM201900 20006KT P6SM FEW150 SCT250
     FM210000 VRB03KT P6SM SCT100 BKN250=



000
FTUS42 KTBW 201100
TAFFMY
TAF
KFMY 201131Z 2012/2112 VRB03KT P6SM SCT250
     FM201400 14007KT P6SM FEW150 SCT250
     FM201800 20006KT P6SM FEW150 SCT250
     FM210000 VRB03KT P6SM SCT100 BKN250=



000
FTUS42 KTBW 201100
TAFTPA
TAF
KTPA 201131Z 2012/2112 VRB02KT P6SM FEW150 SCT250
     FM201400 13006KT P6SM SCT150 BKN250
     FM201800 23005KT P6SM BKN110 BKN250
     FM202300 VRB03KT P6SM BKN070 BKN250=



000
FTUS42 KTBW 201100
TAFPIE
TAF
KPIE 201131Z 2012/2112 VRB03KT P6SM FEW150 SCT250
     FM201400 13006KT P6SM SCT150 BKN250
     FM201900 23005KT P6SM BKN110 BKN250
     FM210000 VRB03KT P6SM BKN070 BKN250=



000
FTUS42 KTBW 201100
TAFSRQ
TAF
KSRQ 201131Z 2012/2112 13005KT P6SM FEW150 SCT250
     FM201700 18007KT P6SM FEW150 SCT250
     FM202100 23006KT P6SM BKN100 BKN250
     FM210000 VRB03KT P6SM BKN100 BKN250=



000
FTUS42 KTBW 200900 AAA
TAFTPA
TAF AMD
KTPA 200902Z 2009/2106 VRB03KT P6SM BKN250
     FM201400 13005KT P6SM FEW120 BKN250
     FM201800 23006KT P6SM FEW035 SCT120 BKN250
     FM210000 VRB03KT P6SM FEW035 BKN100=



000
FTUS42 KTBW 200500 RRA
TAFTPA
TAF
KTPA 200543Z 2006/2106 VRB03KT P6SM BKN250
     FM201400 13005KT P6SM FEW120 BKN250
     FM201800 23006KT P6SM FEW035 SCT120 BKN250
     FM210000 VRB03KT P6SM FEW035 BKN100=



000
FTUS42 KTBW 200500 RRA
TAFFMY
TAF
KFMY 200543Z 2006/2106 VRB03KT P6SM SCT250
     FM201400 14005KT P6SM FEW030 SCT250
     FM201900 20006KT P6SM FEW035 BKN250
     FM210000 VRB03KT P6SM FEW035 SCT100 BKN200=



000
FTUS42 KTBW 200500 RRA
TAFRSW
TAF
KRSW 200543Z 2006/2106 VRB03KT P6SM SCT250
     FM201400 14005KT P6SM FEW030 SCT250
     FM201900 20006KT P6SM FEW035 BKN250
     FM210000 VRB03KT P6SM FEW035 SCT100 BKN200=



000
FTUS42 KTBW 200500 RRA
TAFPIE
TAF
KPIE 200543Z 2006/2106 11005KT P6SM BKN250
     FM201400 14006KT P6SM FEW120 BKN250
     FM202100 26005KT P6SM FEW035 SCT120 BKN250
     FM210000 VRB03KT P6SM FEW035 BKN100=



000
FTUS42 KTBW 200500 RRA
TAFSRQ
TAF
KSRQ 200543Z 2006/2106 11005KT P6SM BKN250
     FM201400 14006KT P6SM FEW120 BKN250
     FM201800 22008KT P6SM FEW035 SCT120 BKN250
     FM210000 VRB03KT P6SM FEW035 BKN100=



000
FTUS42 KTBW 200400 AAA
TAFTPA
TAF AMD
KTPA 200447Z 2005/2024 VRB03KT P6SM BKN250
     FM200900 VRB03KT 6SM BR BKN250
     FM201400 13004KT P6SM FEW120 BKN250
     FM201800 23005KT P6SM FEW035 SCT120 BKN250=



000
FTUS42 KTBW 192300 RRA
TAFFMY
TAF
KFMY 192342Z 2000/2024 VRB03KT P6SM BKN250
     FM200900 VRB03KT 6SM BR BKN250
     FM201400 14005KT P6SM FEW020 SCT250
     FM201900 24006KT P6SM FEW035 SCT250=



000
FTUS42 KTBW 192300 RRA
TAFSRQ
TAF
KSRQ 192342Z 2000/2024 VRB03KT P6SM BKN250
      TEMPO 2002/2006 3SM BR
     FM200900 VRB03KT 6SM BR BKN250
     FM201400 14006KT P6SM FEW120 BKN250
     FM201800 25007KT P6SM FEW035 SCT120 BKN250=



000
FTUS42 KTBW 192300 RRA
TAFTPA
TAF
KTPA 192342Z 2000/2024 VRB03KT P6SM BKN250
     FM200900 VRB03KT 6SM BR BKN250
     FM201400 13004KT P6SM FEW120 BKN250
     FM201800 23005KT P6SM FEW035 SCT120 BKN250=



000
FTUS42 KTBW 192300 RRA
TAFRSW
TAF
KRSW 192342Z 2000/2024 VRB03KT P6SM BKN250
     FM200900 VRB03KT 6SM BR BKN250
     FM201400 14005KT P6SM FEW020 SCT250
     FM201900 23006KT P6SM FEW035 SCT250=



000
FTUS42 KTBW 192300 RRA
TAFPIE
TAF
KPIE 192342Z 2000/2024 VRB03KT P6SM BKN250
     FM200900 VRB03KT 6SM BR BKN250
     FM201400 11004KT P6SM FEW120 BKN250
     FM202000 30005KT P6SM FEW035 SCT120 BKN250=



000
FTUS42 KTBW 192000 AAA
TAFTPA
TAF AMD
KTPA 192059Z 1921/2018 VRB04KT P6SM BKN250
     FM200100 VRB03KT P6SM FEW150 BKN250
      TEMPO 2009/2013 5SM BR
     FM201400 13004KT P6SM SCT150 BKN250=



000
FTUS42 KTBW 191700
TAFFMY
TAF
KFMY 191740Z 1918/2018 11005KT P6SM FEW250
     FM192100 25005KT P6SM SCT250
     FM200100 VRB02KT P6SM SCT250
      TEMPO 2009/2013 5SM BR
     FM201400 14005KT P6SM FEW150 SCT250=



000
FTUS42 KTBW 191700
TAFRSW
TAF
KRSW 191740Z 1918/2018 05005KT P6SM FEW250
     FM192100 23005KT P6SM SCT250
     FM200100 VRB02KT P6SM SCT250
      TEMPO 2009/2013 5SM BR
     FM201400 14005KT P6SM FEW150 SCT250=



000
FTUS42 KTBW 191700
TAFSRQ
TAF
KSRQ 191740Z 1918/2018 13004KT P6SM FEW150 BKN250
     FM192000 26006KT P6SM BKN250
     FM200100 VRB03KT P6SM BKN250
      TEMPO 2009/2013 5SM BR
     FM201400 14006KT P6SM FEW150 BKN250=



000
FTUS42 KTBW 191700
TAFTPA
TAF
KTPA 191740Z 1918/2018 23004KT P6SM BKN250
     FM192100 31005KT P6SM BKN250
     FM200100 VRB03KT P6SM FEW150 BKN250
      TEMPO 2009/2013 5SM BR
     FM201400 13004KT P6SM SCT150 BKN250=



000
FTUS42 KTBW 191700
TAFPIE
TAF
KPIE 191740Z 1918/2018 06004KT P6SM BKN250
     FM192100 34005KT P6SM BKN250
     FM200100 07003KT P6SM FEW150 BKN250
      TEMPO 2009/2013 5SM BR
     FM201400 12004KT P6SM SCT150 BKN250=



000
FTUS42 KTBW 191500 AAA
TAFTPA
TAF AMD
KTPA 191532Z 1916/2012 05005KT P6SM FEW150 BKN250
     FM191900 24005KT P6SM FEW150 BKN250
     FM192200 33004KT P6SM FEW150 BKN250
     FM200100 VRB03KT P6SM FEW150 BKN250=



000
FTUS42 KTBW 191100
TAFPIE
TAF
KPIE 191137Z 1912/2012 05005KT P6SM FEW150 BKN250
     FM192100 35005KT P6SM FEW150 BKN250
     FM200100 VRB04KT P6SM FEW150 BKN250=



000
FTUS42 KTBW 191100
TAFRSW
TAF
KRSW 191137Z 1912/2012 06005KT P6SM SCT250
     FM192100 24005KT P6SM SCT250
     FM200000 VRB02KT P6SM SCT250=



000
FTUS42 KTBW 191100
TAFFMY
TAF
KFMY 191137Z 1912/2012 06005KT P6SM SCT250
     FM192100 24005KT P6SM SCT250
     FM200000 VRB02KT P6SM SCT250=



000
FTUS42 KTBW 191100
TAFTPA
TAF
KTPA 191137Z 1912/2012 05004KT P6SM FEW150 BKN250
     FM191900 24005KT P6SM FEW150 BKN250
     FM192200 33004KT P6SM FEW150 BKN250
     FM200100 VRB03KT P6SM FEW150 BKN250=



000
FTUS42 KTBW 191100
TAFSRQ
TAF
KSRQ 191137Z 1912/2012 05005KT P6SM FEW150 BKN250
     FM191500 06006KT P6SM FEW150 BKN250
     FM192000 27006KT P6SM FEW150 BKN250
     FM192300 35004KT P6SM FEW150 BKN250
     FM200300 10004KT P6SM FEW150 BKN250=



000
FTUS42 KTBW 190900 AAA
TAFPIE
TAF AMD
KPIE 190903Z 1909/2006 04004KT P6SM BKN250
     FM191300 06007KT P6SM FEW150 BKN250
     FM192100 34006KT P6SM FEW150 BKN250
     FM192300 VRB04KT P6SM FEW150 BKN250=



000
FTUS42 KTBW 190900 AAA
TAFSRQ
TAF AMD
KSRQ 190903Z 1909/2006 06004KT P6SM BKN250
     FM191400 08006KT P6SM FEW150 BKN250
     FM191900 28006KT P6SM FEW150 BKN250
     FM192300 VRB03KT P6SM FEW150 BKN250=



000
FTUS42 KTBW 190900 AAA
TAFTPA
TAF AMD
KTPA 190903Z 1909/2006 VRB03KT P6SM BKN250
     FM191300 04004KT P6SM FEW150 BKN250
     FM191800 23006KT P6SM FEW150 BKN250
     FM192300 VRB04KT P6SM FEW150 BKN250=



000
FTUS42 KTBW 190500
TAFFMY
TAF
KFMY 190539Z 1906/2006 VRB03KT P6SM SCT250
     FM191400 07005KT P6SM FEW150 BKN250
     FM191900 15005KT P6SM FEW150 BKN250
     FM192300 VRB03KT P6SM FEW150 BKN250=



000
FTUS42 KTBW 190500
TAFRSW
TAF
KRSW 190539Z 1906/2006 VRB03KT P6SM SCT250
     FM191400 07005KT P6SM FEW150 BKN250
     FM191900 15005KT P6SM FEW150 BKN250
     FM192300 VRB03KT P6SM FEW150 BKN250=



000
FTUS42 KTBW 190500
TAFTPA
TAF
KTPA 190539Z 1906/2006 VRB03KT P6SM BKN250
      TEMPO 1909/1912 5SM BR
     FM191300 04004KT P6SM FEW150 BKN250
     FM191800 23006KT P6SM FEW150 BKN250
     FM192300 VRB04KT P6SM FEW150 BKN250=



000
FTUS42 KTBW 190500
TAFSRQ
TAF
KSRQ 190539Z 1906/2006 VRB02KT 6SM BR BKN250
      TEMPO 1906/1910 4SM BR
     FM191000 07002KT 4SM BR BKN250
     FM191400 08006KT P6SM FEW150 BKN250
     FM191900 28006KT P6SM FEW150 BKN250
     FM192300 VRB03KT P6SM FEW150 BKN250=



000
FTUS42 KTBW 190500
TAFPIE
TAF
KPIE 190539Z 1906/2006 VRB03KT P6SM BKN250
      TEMPO 1909/1912 5SM BR
     FM191300 06007KT P6SM FEW150 BKN250
     FM192100 34006KT P6SM FEW150 BKN250
     FM192300 VRB04KT P6SM FEW150 BKN250=



000
FTUS42 KTBW 190200 AAA
TAFTPA
TAF AMD
KTPA 190255Z 1903/1924 34003KT P6SM SCT250
      TEMPO 1909/1912 5SM BR
     FM191300 04004KT P6SM FEW150 SCT250
     FM191800 11006KT P6SM FEW150 SCT250=



000
FTUS42 KTBW 182300
TAFFMY
TAF
KFMY 182336Z 1900/1924 31006KT P6SM BKN250
     FM190200 34003KT P6SM SCT250
      TEMPO 1909/1912 5SM BR
     FM191200 04004KT P6SM FEW200
     FM191900 10005KT P6SM FEW200=



000
FTUS42 KTBW 182300
TAFTPA
TAF
KTPA 182336Z 1900/1924 32005KT P6SM BKN250
     FM190200 34003KT P6SM SCT250
      TEMPO 1909/1912 5SM BR
     FM191300 04004KT P6SM FEW150 SCT250=



000
FTUS42 KTBW 182300
TAFPIE
TAF
KPIE 182336Z 1900/1924 32005KT P6SM BKN250
     FM190200 34003KT P6SM SCT250
      TEMPO 1909/1912 5SM BR
     FM191300 05004KT P6SM FEW150 SCT250=



000
FTUS42 KTBW 182300
TAFSRQ
TAF
KSRQ 182336Z 1900/1924 33006KT P6SM BKN250
     FM190200 34003KT P6SM SCT250
      TEMPO 1909/1912 5SM BR
     FM191500 07006KT P6SM SCT200=



000
FTUS42 KTBW 182300
TAFRSW
TAF
KRSW 182336Z 1900/1924 31005KT P6SM BKN250
     FM190200 34003KT P6SM SCT250
      TEMPO 1909/1912 5SM BR
     FM191200 01004KT P6SM FEW200
     FM191900 10006KT P6SM FEW150 FEW250=



000
FTUS42 KTBW 182100 AAA
TAFTPA
TAF AMD
KTPA 182100Z 1821/1918 29007KT P6SM FEW150 BKN250
     FM190100 02003KT P6SM SCT250
      TEMPO 1909/1912 5SM BR
     FM191300 04004KT P6SM FEW150 BKN250=



    US Dept of Commerce
    National Oceanic and Atmospheric Administration
    National Weather Service
    1325 East West Highway
    Silver Spring, MD 20910
    Page Author: NWS Internet Services Team
Disclaimer
Information Quality
Credits
Glossary
Privacy Policy
Freedom of Information Act (FOIA)
About Us
Career Opportunities